Terminal Aerodrome Forecast
Issued by NWS

Home | Current Version | Previous Version | Text Only | Print | Product List | Glossary On
Versions: 1 2 3 4 5 6 7 8 9 10 11 12
120
FTUS45 KRIW 271128
TAFCOD
TAF
KCOD 271128Z 2712/2812 VRB08G15KT P6SM VCTS SCT050CB BKN090
     FM271400 34010KT P6SM VCSH SCT060 BKN090
     FM272000 36012G18KT P6SM VCTS SCT060CB BKN100
     FM280200 36011KT P6SM -SHRA BKN040
     FM280700 35010KT P6SM VCSH BKN040
      AMD LTD TO CLD VIS AND WIND=

USA.gov is the U.S. government's official web portal to all federal, state and local government web resources and services.